sensor_id;sensor_type;location;lat;lon;timestamp;pressure;altitude;pressure_sealevel;temperature;humidity
59106;BME280;44891;50.204;8.132;2023-02-13T00:03:12;100252.84;;;6.06;100.00
59106;BME280;44891;50.204;8.132;2023-02-13T00:07:14;100242.59;;;6.12;100.00
59106;BME280;44891;50.204;8.132;2023-02-13T00:11:16;100238.88;;;6.15;100.00
59106;BME280;44891;50.204;8.132;2023-02-13T00:15:21;100241.78;;;6.20;100.00
59106;BME280;44891;50.204;8.132;2023-02-13T00:19:23;100243.13;;;6.24;100.00
59106;BME280;44891;50.204;8.132;2023-02-13T00:23:25;100234.94;;;6.27;100.00
59106;BME280;44891;50.204;8.132;2023-02-13T00:27:27;100241.81;;;6.28;100.00
59106;BME280;44891;50.204;8.132;2023-02-13T00:31:30;100239.53;;;6.25;100.00
59106;BME280;44891;50.204;8.132;2023-02-13T00:35:32;100238.06;;;6.22;100.00
59106;BME280;44891;50.204;8.132;2023-02-13T00:39:34;100238.72;;;6.24;100.00
59106;BME280;44891;50.204;8.132;2023-02-13T00:43:37;100235.63;;;6.21;100.00
59106;BME280;44891;50.204;8.132;2023-02-13T00:47:41;100234.94;;;6.19;100.00
59106;BME280;44891;50.204;8.132;2023-02-13T00:51:42;100230.03;;;6.08;100.00
59106;BME280;44891;50.204;8.132;2023-02-13T00:55:44;100231.66;;;6.09;100.00
59106;BME280;44891;50.204;8.132;2023-02-13T00:59:46;100231.97;;;5.97;100.00
59106;BME280;44891;50.204;8.132;2023-02-13T01:03:50;100228.31;;;5.90;100.00
59106;BME280;44891;50.204;8.132;2023-02-13T01:07:52;100235.50;;;5.88;100.00
59106;BME280;44891;50.204;8.132;2023-02-13T01:11:54;100236.41;;;5.79;100.00
59106;BME280;44891;50.204;8.132;2023-02-13T01:15:55;100239.56;;;5.49;100.00
59106;BME280;44891;50.204;8.132;2023-02-13T01:19:58;100239.50;;;5.14;100.00
59106;BME280;44891;50.204;8.132;2023-02-13T01:24:01;100240.22;;;4.99;100.00
59106;BME280;44891;50.204;8.132;2023-02-13T01:28:03;100242.28;;;4.95;100.00
59106;BME280;44891;50.204;8.132;2023-02-13T01:32:05;100234.16;;;4.90;99.71
59106;BME280;44891;50.204;8.132;2023-02-13T01:36:10;100227.38;;;4.79;99.63
59106;BME280;44891;50.204;8.132;2023-02-13T01:40:13;100219.09;;;4.58;99.87
59106;BME280;44891;50.204;8.132;2023-02-13T01:48:37;100220.50;;;4.34;98.35
59106;BME280;44891;50.204;8.132;2023-02-13T01:52:42;100218.84;;;4.16;100.00
59106;BME280;44891;50.204;8.132;2023-02-13T01:56:47;100214.38;;;4.08;99.04
59106;BME280;44891;50.204;8.132;2023-02-13T02:00:49;100213.09;;;3.94;99.24
59106;BME280;44891;50.204;8.132;2023-02-13T02:04:51;100206.25;;;3.93;98.71
59106;BME280;44891;50.204;8.132;2023-02-13T02:08:56;100207.09;;;3.66;98.74
59106;BME280;44891;50.204;8.132;2023-02-13T02:13:00;100201.03;;;3.75;97.67
59106;BME280;44891;50.204;8.132;2023-02-13T02:17:05;100199.22;;;3.58;98.40
59106;BME280;44891;50.204;8.132;2023-02-13T02:25:37;100196.88;;;3.55;96.82
59106;BME280;44891;50.204;8.132;2023-02-13T02:34:19;100204.00;;;3.25;97.44
59106;BME280;44891;50.204;8.132;2023-02-13T02:38:29;100194.25;;;2.81;99.18
59106;BME280;44891;50.204;8.132;2023-02-13T02:42:38;100199.41;;;2.90;99.75
59106;BME280;44891;50.204;8.132;2023-02-13T02:46:47;100185.78;;;2.88;98.67
59106;BME280;44891;50.204;8.132;2023-02-13T02:51:16;100191.91;;;2.87;98.42
59106;BME280;44891;50.204;8.132;2023-02-13T02:55:27;100196.69;;;2.92;96.98
59106;BME280;44891;50.204;8.132;2023-02-13T02:59:30;100192.06;;;2.86;96.52
59106;BME280;44891;50.204;8.132;2023-02-13T03:03:50;100201.66;;;2.66;97.22
59106;BME280;44891;50.204;8.132;2023-02-13T03:08:13;100201.91;;;2.63;96.75
59106;BME280;44891;50.204;8.132;2023-02-13T03:12:16;100202.47;;;2.47;96.48
59106;BME280;44891;50.204;8.132;2023-02-13T03:16:37;100200.97;;;2.35;97.12
59106;BME280;44891;50.204;8.132;2023-02-13T03:20:59;100203.28;;;2.09;97.77
59106;BME280;44891;50.204;8.132;2023-02-13T03:25:27;100196.00;;;1.83;98.57
59106;BME280;44891;50.204;8.132;2023-02-13T03:29:38;100207.75;;;1.87;99.80
59106;BME280;44891;50.204;8.132;2023-02-13T03:34:01;100216.09;;;2.01;99.00
59106;BME280;44891;50.204;8.132;2023-02-13T03:38:07;100210.06;;;1.90;98.44
59106;BME280;44891;50.204;8.132;2023-02-13T03:42:14;100221.84;;;1.64;99.00
59106;BME280;44891;50.204;8.132;2023-02-13T03:46:19;100222.31;;;1.79;98.58
59106;BME280;44891;50.204;8.132;2023-02-13T03:50:22;100232.41;;;1.82;97.53
59106;BME280;44891;50.204;8.132;2023-02-13T03:54:25;100230.84;;;1.70;97.87
59106;BME280;44891;50.204;8.132;2023-02-13T03:58:48;100232.69;;;1.79;96.63
59106;BME280;44891;50.204;8.132;2023-02-13T04:03:09;100229.91;;;1.71;98.45
59106;BME280;44891;50.204;8.132;2023-02-13T04:07:15;100227.84;;;1.64;97.26
59106;BME280;44891;50.204;8.132;2023-02-13T04:11:29;100229.78;;;1.72;98.37
59106;BME280;44891;50.204;8.132;2023-02-13T04:15:35;100232.63;;;1.69;97.65
59106;BME280;44891;50.204;8.132;2023-02-13T04:19:39;100237.19;;;1.46;97.43
59106;BME280;44891;50.204;8.132;2023-02-13T04:23:41;100232.69;;;1.48;99.07
59106;BME280;44891;50.204;8.132;2023-02-13T04:27:43;100228.41;;;1.38;98.56
59106;BME280;44891;50.204;8.132;2023-02-13T04:31:47;100221.13;;;1.52;97.44
59106;BME280;44891;50.204;8.132;2023-02-13T04:35:49;100223.06;;;1.60;98.22
59106;BME280;44891;50.204;8.132;2023-02-13T04:39:51;100233.13;;;1.53;99.39
59106;BME280;44891;50.204;8.132;2023-02-13T04:43:53;100220.22;;;1.32;100.00
59106;BME280;44891;50.204;8.132;2023-02-13T04:47:56;100226.22;;;1.33;100.00
59106;BME280;44891;50.204;8.132;2023-02-13T04:51:58;100217.09;;;1.39;100.00
59106;BME280;44891;50.204;8.132;2023-02-13T04:56:01;100218.88;;;1.38;99.59
59106;BME280;44891;50.204;8.132;2023-02-13T05:00:03;100220.63;;;1.28;97.86
59106;BME280;44891;50.204;8.132;2023-02-13T05:04:07;100217.34;;;1.26;98.51
59106;BME280;44891;50.204;8.132;2023-02-13T05:08:09;100217.06;;;1.29;98.68
59106;BME280;44891;50.204;8.132;2023-02-13T05:12:11;100217.13;;;0.87;100.00
59106;BME280;44891;50.204;8.132;2023-02-13T05:16:12;100218.47;;;0.91;100.00
59106;BME280;44891;50.204;8.132;2023-02-13T05:20:16;100215.78;;;1.14;100.00
59106;BME280;44891;50.204;8.132;2023-02-13T05:24:18;100218.84;;;1.28;98.74
59106;BME280;44891;50.204;8.132;2023-02-13T05:28:20;100221.66;;;1.25;99.34
59106;BME280;44891;50.204;8.132;2023-02-13T05:32:40;100222.31;;;1.18;100.00
59106;BME280;44891;50.204;8.132;2023-02-13T05:36:44;100232.44;;;1.21;100.00
59106;BME280;44891;50.204;8.132;2023-02-13T05:40:46;100227.81;;;1.03;100.00
59106;BME280;44891;50.204;8.132;2023-02-13T05:44:48;100221.41;;;0.77;100.00
59106;BME280;44891;50.204;8.132;2023-02-13T05:48:50;100227.56;;;0.65;100.00
59106;BME280;44891;50.204;8.132;2023-02-13T05:52:53;100223.66;;;0.70;100.00
59106;BME280;44891;50.204;8.132;2023-02-13T05:56:55;100228.50;;;0.64;100.00
59106;BME280;44891;50.204;8.132;2023-02-13T06:00:57;100217.44;;;0.73;100.00
59106;BME280;44891;50.204;8.132;2023-02-13T06:04:59;100223.44;;;0.73;100.00
59106;BME280;44891;50.204;8.132;2023-02-13T06:09:02;100216.31;;;0.87;100.00
59106;BME280;44891;50.204;8.132;2023-02-13T06:13:05;100219.75;;;0.97;99.93
59106;BME280;44891;50.204;8.132;2023-02-13T06:17:06;100211.00;;;0.88;100.00
59106;BME280;44891;50.204;8.132;2023-02-13T06:21:08;100222.22;;;0.77;99.68
59106;BME280;44891;50.204;8.132;2023-02-13T06:25:12;100222.16;;;0.89;99.83
59106;BME280;44891;50.204;8.132;2023-02-13T06:29:14;100222.16;;;0.68;100.00
59106;BME280;44891;50.204;8.132;2023-02-13T06:33:15;100223.84;;;0.78;100.00
59106;BME280;44891;50.204;8.132;2023-02-13T06:37:17;100222.34;;;0.76;100.00
59106;BME280;44891;50.204;8.132;2023-02-13T06:41:20;100213.00;;;0.64;100.00
59106;BME280;44891;50.204;8.132;2023-02-13T06:45:22;100220.69;;;0.54;100.00
59106;BME280;44891;50.204;8.132;2023-02-13T06:49:24;100213.75;;;0.54;99.44
59106;BME280;44891;50.204;8.132;2023-02-13T06:53:26;100216.63;;;0.40;100.00
59106;BME280;44891;50.204;8.132;2023-02-13T06:57:29;100217.28;;;0.53;100.00
59106;BME280;44891;50.204;8.132;2023-02-13T07:01:32;100223.66;;;0.70;100.00
59106;BME280;44891;50.204;8.132;2023-02-13T07:05:34;100227.19;;;0.69;100.00
59106;BME280;44891;50.204;8.132;2023-02-13T07:09:36;100228.66;;;0.83;100.00
59106;BME280;44891;50.204;8.132;2023-02-13T07:13:41;100228.69;;;0.72;100.00
59106;BME280;44891;50.204;8.132;2023-02-13T07:17:43;100232.63;;;0.66;100.00
59106;BME280;44891;50.204;8.132;2023-02-13T07:21:45;100239.06;;;0.93;99.46
59106;BME280;44891;50.204;8.132;2023-02-13T07:25:46;100228.72;;;0.93;98.71
59106;BME280;44891;50.204;8.132;2023-02-13T07:29:49;100229.34;;;0.85;99.05
59106;BME280;44891;50.204;8.132;2023-02-13T07:33:51;100236.19;;;0.86;99.02
59106;BME280;44891;50.204;8.132;2023-02-13T07:37:53;100185.81;;;0.48;98.77
59106;BME280;44891;50.204;8.132;2023-02-13T07:41:55;100242.34;;;0.74;100.00
59106;BME280;44891;50.204;8.132;2023-02-13T07:46:01;100240.75;;;1.03;98.99
59106;BME280;44891;50.204;8.132;2023-02-13T07:50:03;100237.53;;;1.11;97.27
59106;BME280;44891;50.204;8.132;2023-02-13T07:54:05;100237.59;;;1.21;97.03
59106;BME280;44891;50.204;8.132;2023-02-13T07:58:07;100232.44;;;1.21;97.79
59106;BME280;44891;50.204;8.132;2023-02-13T08:02:11;100233.47;;;1.39;98.01
59106;BME280;44891;50.204;8.132;2023-02-13T08:06:13;100235.53;;;1.45;97.88
59106;BME280;44891;50.204;8.132;2023-02-13T08:10:15;100235.09;;;1.71;98.02
59106;BME280;44891;50.204;8.132;2023-02-13T08:14:35;100232.09;;;1.75;98.81
59106;BME280;44891;50.204;8.132;2023-02-13T08:18:38;100230.78;;;1.81;99.06
59106;BME280;44891;50.204;8.132;2023-02-13T08:22:40;100228.38;;;1.99;99.56
59106;BME280;44891;50.204;8.132;2023-02-13T08:26:41;100230.88;;;2.39;99.50
59106;BME280;44891;50.204;8.132;2023-02-13T08:30:44;100230.59;;;2.61;97.80
59106;BME280;44891;50.204;8.132;2023-02-13T08:34:47;100227.16;;;2.80;98.02
59106;BME280;44891;50.204;8.132;2023-02-13T08:38:49;100226.75;;;3.04;97.44
59106;BME280;44891;50.204;8.132;2023-02-13T08:42:51;100228.28;;;3.34;96.26
59106;BME280;44891;50.204;8.132;2023-02-13T08:46:53;100230.47;;;3.66;95.42
59106;BME280;44891;50.204;8.132;2023-02-13T08:50:56;100232.41;;;3.92;94.21
59106;BME280;44891;50.204;8.132;2023-02-13T08:54:58;100220.13;;;4.12;93.15
59106;BME280;44891;50.204;8.132;2023-02-13T08:58:59;100222.75;;;4.29;91.98
59106;BME280;44891;50.204;8.132;2023-02-13T09:03:02;100228.91;;;4.64;90.21
59106;BME280;44891;50.204;8.132;2023-02-13T09:07:05;100229.44;;;4.94;89.15
59106;BME280;44891;50.204;8.132;2023-02-13T09:11:08;100228.91;;;5.68;87.43
59106;BME280;44891;50.204;8.132;2023-02-13T09:15:10;100234.19;;;6.84;81.35
59106;BME280;44891;50.204;8.132;2023-02-13T09:19:11;100234.34;;;8.01;76.01
59106;BME280;44891;50.204;8.132;2023-02-13T09:23:15;100244.63;;;9.17;71.28
59106;BME280;44891;50.204;8.132;2023-02-13T09:27:16;100243.41;;;10.23;67.50
59106;BME280;44891;50.204;8.132;2023-02-13T09:31:19;100207.84;;;10.42;65.55
59106;BME280;44891;50.204;8.132;2023-02-13T09:35:23;100242.47;;;10.95;65.08
59106;BME280;44891;50.204;8.132;2023-02-13T09:39:26;100237.38;;;11.84;61.98
59106;BME280;44891;50.204;8.132;2023-02-13T09:43:29;100240.16;;;12.31;60.78
59106;BME280;44891;50.204;8.132;2023-02-13T09:47:33;100240.19;;;13.17;57.85
59106;BME280;44891;50.204;8.132;2023-02-13T09:51:35;100242.91;;;13.81;56.66
59106;BME280;44891;50.204;8.132;2023-02-13T09:55:41;100250.50;;;14.09;55.68
59106;BME280;44891;50.204;8.132;2023-02-13T09:59:55;100245.28;;;14.73;54.25
59106;BME280;44891;50.204;8.132;2023-02-13T10:04:05;100247.03;;;15.29;52.58
59106;BME280;44891;50.204;8.132;2023-02-13T10:08:10;100249.13;;;15.63;51.47
59106;BME280;44891;50.204;8.132;2023-02-13T10:12:27;100216.84;;;16.33;49.29
59106;BME280;44891;50.204;8.132;2023-02-13T10:16:32;100244.69;;;17.07;47.76
59106;BME280;44891;50.204;8.132;2023-02-13T10:20:36;100242.59;;;17.45;46.33
59106;BME280;44891;50.204;8.132;2023-02-13T10:24:41;100244.72;;;18.23;44.50
59106;BME280;44891;50.204;8.132;2023-02-13T10:28:47;100231.97;;;18.25;42.94
59106;BME280;44891;50.204;8.132;2023-02-13T10:33:10;100237.75;;;18.67;41.67
59106;BME280;44891;50.204;8.132;2023-02-13T10:37:20;100238.34;;;18.86;40.84
59106;BME280;44891;50.204;8.132;2023-02-13T10:41:23;100233.38;;;19.28;40.32
59106;BME280;44891;50.204;8.132;2023-02-13T10:45:31;100238.88;;;19.22;40.08
59106;BME280;44891;50.204;8.132;2023-02-13T10:49:40;100236.31;;;19.10;39.90
59106;BME280;44891;50.204;8.132;2023-02-13T10:53:48;100231.09;;;20.03;39.01
59106;BME280;44891;50.204;8.132;2023-02-13T10:58:01;100231.31;;;20.23;38.28
59106;BME280;44891;50.204;8.132;2023-02-13T11:02:14;100231.16;;;18.41;40.42
59106;BME280;44891;50.204;8.132;2023-02-13T11:06:21;100232.63;;;16.28;44.67
59106;BME280;44891;50.204;8.132;2023-02-13T11:10:25;100228.91;;;14.82;47.22
59106;BME280;44891;50.204;8.132;2023-02-13T11:14:27;100221.94;;;13.86;50.73
59106;BME280;44891;50.204;8.132;2023-02-13T11:18:31;100210.53;;;13.48;53.20
59106;BME280;44891;50.204;8.132;2023-02-13T11:22:35;100215.88;;;12.95;53.80
59106;BME280;44891;50.204;8.132;2023-02-13T11:26:38;100210.78;;;12.53;55.43
59106;BME280;44891;50.204;8.132;2023-02-13T11:30:40;100197.00;;;12.45;56.10
59106;BME280;44891;50.204;8.132;2023-02-13T11:34:44;100200.88;;;12.56;55.15
59106;BME280;44891;50.204;8.132;2023-02-13T11:38:46;100205.53;;;12.67;55.48
59106;BME280;44891;50.204;8.132;2023-02-13T11:42:57;100201.69;;;12.76;54.04
59106;BME280;44891;50.204;8.132;2023-02-13T11:46:59;100198.34;;;13.40;53.15
59106;BME280;44891;50.204;8.132;2023-02-13T11:51:04;100188.41;;;15.07;48.55
59106;BME280;44891;50.204;8.132;2023-02-13T11:55:23;100178.75;;;19.97;37.85
59106;BME280;44891;50.204;8.132;2023-02-13T11:59:25;100181.03;;;23.22;32.20
59106;BME280;44891;50.204;8.132;2023-02-13T12:03:28;100185.00;;;24.38;30.38
59106;BME280;44891;50.204;8.132;2023-02-13T12:07:31;100182.44;;;24.18;29.56
59106;BME280;44891;50.204;8.132;2023-02-13T12:11:35;100173.47;;;25.20;28.46
59106;BME280;44891;50.204;8.132;2023-02-13T12:15:37;100174.00;;;25.65;27.36
59106;BME280;44891;50.204;8.132;2023-02-13T12:19:40;100173.31;;;26.29;27.72
59106;BME280;44891;50.204;8.132;2023-02-13T12:23:45;100163.41;;;28.71;24.54
59106;BME280;44891;50.204;8.132;2023-02-13T12:27:51;100162.56;;;29.33;23.79
59106;BME280;44891;50.204;8.132;2023-02-13T12:32:00;100161.69;;;29.15;23.43
59106;BME280;44891;50.204;8.132;2023-02-13T12:36:05;100160.78;;;29.19;23.72
59106;BME280;44891;50.204;8.132;2023-02-13T12:40:22;100163.09;;;29.69;23.32
59106;BME280;44891;50.204;8.132;2023-02-13T12:48:56;100150.88;;;28.75;24.25
59106;BME280;44891;50.204;8.132;2023-02-13T12:53:10;100154.91;;;26.83;25.39
59106;BME280;44891;50.204;8.132;2023-02-13T12:57:21;100139.69;;;27.56;24.54
59106;BME280;44891;50.204;8.132;2023-02-13T13:01:25;100144.44;;;28.62;23.92
59106;BME280;44891;50.204;8.132;2023-02-13T13:05:44;100132.59;;;31.18;20.89
59106;BME280;44891;50.204;8.132;2023-02-13T13:09:53;100131.44;;;33.42;18.89
59106;BME280;44891;50.204;8.132;2023-02-13T13:14:01;100131.47;;;33.98;18.37
59106;BME280;44891;50.204;8.132;2023-02-13T13:18:08;100127.78;;;34.06;18.05
59106;BME280;44891;50.204;8.132;2023-02-13T13:22:16;100123.00;;;33.47;18.49
59106;BME280;44891;50.204;8.132;2023-02-13T13:26:20;100121.59;;;33.01;18.72
59106;BME280;44891;50.204;8.132;2023-02-13T13:30:28;100118.75;;;32.28;18.73
59106;BME280;44891;50.204;8.132;2023-02-13T13:34:30;100120.72;;;31.73;19.58
59106;BME280;44891;50.204;8.132;2023-02-13T13:38:40;100110.00;;;33.28;18.33
59106;BME280;44891;50.204;8.132;2023-02-13T13:42:45;100103.81;;;34.28;17.33
59106;BME280;44891;50.204;8.132;2023-02-13T13:46:54;100102.94;;;34.24;17.32
59106;BME280;44891;50.204;8.132;2023-02-13T13:50:57;100096.28;;;31.31;19.50
59106;BME280;44891;50.204;8.132;2023-02-13T13:55:00;100085.88;;;32.08;18.61
59106;BME280;44891;50.204;8.132;2023-02-13T13:59:02;100089.84;;;32.93;18.45
59106;BME280;44891;50.204;8.132;2023-02-13T14:03:35;100085.63;;;31.26;18.93
59106;BME280;44891;50.204;8.132;2023-02-13T14:07:39;100077.78;;;31.87;18.82
59106;BME280;44891;50.204;8.132;2023-02-13T14:11:42;100071.69;;;30.30;19.99
59106;BME280;44891;50.204;8.132;2023-02-13T14:15:50;100072.34;;;30.27;19.88
59106;BME280;44891;50.204;8.132;2023-02-13T14:19:53;100061.53;;;31.16;19.10
59106;BME280;44891;50.204;8.132;2023-02-13T14:23:56;100069.31;;;30.29;19.78
59106;BME280;44891;50.204;8.132;2023-02-13T14:28:03;100069.53;;;24.04;25.58
59106;BME280;44891;50.204;8.132;2023-02-13T14:32:12;100029.03;;;19.56;32.06
59106;BME280;44891;50.204;8.132;2023-02-13T14:36:19;100081.09;;;17.18;37.42
59106;BME280;44891;50.204;8.132;2023-02-13T14:40:31;100081.66;;;15.61;40.51
59106;BME280;44891;50.204;8.132;2023-02-13T14:44:43;100078.28;;;14.69;42.45
59106;BME280;44891;50.204;8.132;2023-02-13T14:48:48;100077.16;;;14.08;44.30
59106;BME280;44891;50.204;8.132;2023-02-13T14:52:53;100073.19;;;13.61;45.31
59106;BME280;44891;50.204;8.132;2023-02-13T14:56:58;100074.69;;;13.44;45.50
59106;BME280;44891;50.204;8.132;2023-02-13T15:01:02;100074.78;;;13.30;46.46
59106;BME280;44891;50.204;8.132;2023-02-13T15:05:06;100078.28;;;13.04;46.96
59106;BME280;44891;50.204;8.132;2023-02-13T15:09:18;100069.84;;;12.76;47.55
59106;BME280;44891;50.204;8.132;2023-02-13T15:13:21;100071.28;;;12.59;48.46
59106;BME280;44891;50.204;8.132;2023-02-13T15:17:25;100062.59;;;12.51;48.92
59106;BME280;44891;50.204;8.132;2023-02-13T15:21:28;100060.41;;;12.29;49.55
59106;BME280;44891;50.204;8.132;2023-02-13T15:25:36;100068.69;;;12.19;50.57
59106;BME280;44891;50.204;8.132;2023-02-13T15:29:38;100069.91;;;11.90;52.11
59106;BME280;44891;50.204;8.132;2023-02-13T15:33:53;100069.03;;;11.76;52.68
59106;BME280;44891;50.204;8.132;2023-02-13T15:37:57;100064.75;;;11.68;53.17
59106;BME280;44891;50.204;8.132;2023-02-13T15:42:01;100056.81;;;11.49;53.94
59106;BME280;44891;50.204;8.132;2023-02-13T15:46:04;100069.56;;;11.45;54.72
59106;BME280;44891;50.204;8.132;2023-02-13T15:50:12;100074.81;;;11.38;55.00
59106;BME280;44891;50.204;8.132;2023-02-13T15:54:22;100070.06;;;11.14;55.48
59106;BME280;44891;50.204;8.132;2023-02-13T15:58:27;100071.22;;;10.98;55.85
59106;BME280;44891;50.204;8.132;2023-02-13T16:02:32;100062.53;;;11.04;55.97
59106;BME280;44891;50.204;8.132;2023-02-13T16:06:39;100062.31;;;10.99;55.93
59106;BME280;44891;50.204;8.132;2023-02-13T16:10:41;100071.94;;;10.85;56.17
59106;BME280;44891;50.204;8.132;2023-02-13T16:14:46;100070.63;;;10.68;57.00
59106;BME280;44891;50.204;8.132;2023-02-13T16:18:49;100075.66;;;10.63;57.50
59106;BME280;44891;50.204;8.132;2023-02-13T16:22:51;100074.97;;;10.54;57.58
59106;BME280;44891;50.204;8.132;2023-02-13T16:26:53;100083.66;;;10.55;57.95
59106;BME280;44891;50.204;8.132;2023-02-13T16:30:57;100094.38;;;10.25;59.37
59106;BME280;44891;50.204;8.132;2023-02-13T16:35:16;100091.22;;;9.94;60.29
59106;BME280;44891;50.204;8.132;2023-02-13T16:39:19;100101.00;;;9.64;61.31
59106;BME280;44891;50.204;8.132;2023-02-13T16:43:38;100091.78;;;9.32;62.26
59106;BME280;44891;50.204;8.132;2023-02-13T16:47:41;100102.66;;;8.99;63.57
59106;BME280;44891;50.204;8.132;2023-02-13T16:51:44;100109.34;;;8.87;63.96
59106;BME280;44891;50.204;8.132;2023-02-13T16:55:55;100109.66;;;8.54;64.96
59106;BME280;44891;50.204;8.132;2023-02-13T16:59:58;100111.66;;;8.29;66.22
59106;BME280;44891;50.204;8.132;2023-02-13T17:04:04;100118.53;;;8.07;67.18
59106;BME280;44891;50.204;8.132;2023-02-13T17:08:14;100116.75;;;7.77;67.87
59106;BME280;44891;50.204;8.132;2023-02-13T17:12:17;100118.56;;;7.76;67.85
59106;BME280;44891;50.204;8.132;2023-02-13T17:16:19;100127.16;;;7.62;67.90
59106;BME280;44891;50.204;8.132;2023-02-13T17:20:24;100134.88;;;7.55;68.14
59106;BME280;44891;50.204;8.132;2023-02-13T17:24:26;100138.63;;;7.14;69.47
59106;BME280;44891;50.204;8.132;2023-02-13T17:28:28;100135.16;;;6.74;71.18
59106;BME280;44891;50.204;8.132;2023-02-13T17:32:32;100140.88;;;6.45;71.89
59106;BME280;44891;50.204;8.132;2023-02-13T17:36:35;100135.97;;;6.50;72.38
59106;BME280;44891;50.204;8.132;2023-02-13T17:40:37;100128.47;;;6.31;72.70
59106;BME280;44891;50.204;8.132;2023-02-13T17:44:40;100131.09;;;6.31;73.02
59106;BME280;44891;50.204;8.132;2023-02-13T17:48:42;100125.69;;;6.24;73.25
59106;BME280;44891;50.204;8.132;2023-02-13T17:52:46;100131.13;;;5.64;75.28
59106;BME280;44891;50.204;8.132;2023-02-13T17:56:48;100122.19;;;5.75;75.00
59106;BME280;44891;50.204;8.132;2023-02-13T18:00:50;100115.47;;;5.56;76.01
59106;BME280;44891;50.204;8.132;2023-02-13T18:04:52;100125.25;;;5.62;75.40
59106;BME280;44891;50.204;8.132;2023-02-13T18:08:55;100130.66;;;5.68;74.39
59106;BME280;44891;50.204;8.132;2023-02-13T18:12:57;100127.63;;;5.47;75.09
59106;BME280;44891;50.204;8.132;2023-02-13T18:17:03;100135.31;;;5.49;75.12
59106;BME280;44891;50.204;8.132;2023-02-13T18:21:05;100134.78;;;5.37;75.61
59106;BME280;44891;50.204;8.132;2023-02-13T18:25:09;100135.56;;;5.29;76.38
59106;BME280;44891;50.204;8.132;2023-02-13T18:29:11;100131.03;;;5.39;75.11
59106;BME280;44891;50.204;8.132;2023-02-13T18:33:13;100143.13;;;5.14;76.56
59106;BME280;44891;50.204;8.132;2023-02-13T18:37:16;100138.81;;;4.97;76.80
59106;BME280;44891;50.204;8.132;2023-02-13T18:41:19;100133.50;;;5.07;76.31
59106;BME280;44891;50.204;8.132;2023-02-13T18:45:21;100134.00;;;4.76;77.75
59106;BME280;44891;50.204;8.132;2023-02-13T18:49:23;100130.25;;;4.79;77.42
59106;BME280;44891;50.204;8.132;2023-02-13T18:53:25;100130.03;;;4.72;77.67
59106;BME280;44891;50.204;8.132;2023-02-13T18:57:28;100136.28;;;4.79;76.88
59106;BME280;44891;50.204;8.132;2023-02-13T19:01:30;100126.44;;;4.65;77.74
59106;BME280;44891;50.204;8.132;2023-02-13T19:05:32;100128.19;;;4.39;78.54
59106;BME280;44891;50.204;8.132;2023-02-13T19:09:34;100120.13;;;4.24;79.22
59106;BME280;44891;50.204;8.132;2023-02-13T19:13:41;100121.00;;;4.15;79.89
59106;BME280;44891;50.204;8.132;2023-02-13T19:17:43;100117.84;;;3.75;82.11
59106;BME280;44891;50.204;8.132;2023-02-13T19:21:45;100119.75;;;3.83;81.88
59106;BME280;44891;50.204;8.132;2023-02-13T19:25:47;100120.78;;;3.90;81.06
59106;BME280;44891;50.204;8.132;2023-02-13T19:29:50;100111.78;;;3.85;81.40
59106;BME280;44891;50.204;8.132;2023-02-13T19:33:52;100122.63;;;3.80;80.75
59106;BME280;44891;50.204;8.132;2023-02-13T19:37:54;100124.09;;;3.82;80.98
59106;BME280;44891;50.204;8.132;2023-02-13T19:41:56;100133.44;;;3.75;80.69
59106;BME280;44891;50.204;8.132;2023-02-13T19:46:00;100127.47;;;3.47;83.04
59106;BME280;44891;50.204;8.132;2023-02-13T19:50:04;100131.91;;;3.37;83.21
59106;BME280;44891;50.204;8.132;2023-02-13T19:54:07;100126.00;;;3.45;82.72
59106;BME280;44891;50.204;8.132;2023-02-13T19:58:10;100131.44;;;3.51;82.18
59106;BME280;44891;50.204;8.132;2023-02-13T20:02:15;100133.63;;;3.46;81.41
59106;BME280;44891;50.204;8.132;2023-02-13T20:06:19;100133.44;;;3.58;81.17
59106;BME280;44891;50.204;8.132;2023-02-13T20:10:21;100132.47;;;3.59;81.59
59106;BME280;44891;50.204;8.132;2023-02-13T20:14:23;100134.63;;;3.36;83.29
59106;BME280;44891;50.204;8.132;2023-02-13T20:18:26;100127.06;;;3.52;82.12
59106;BME280;44891;50.204;8.132;2023-02-13T20:22:28;100133.88;;;3.25;82.76
59106;BME280;44891;50.204;8.132;2023-02-13T20:26:30;100137.56;;;3.23;81.71
59106;BME280;44891;50.204;8.132;2023-02-13T20:30:32;100129.97;;;3.12;82.75
59106;BME280;44891;50.204;8.132;2023-02-13T20:34:35;100124.47;;;3.15;82.77
59106;BME280;44891;50.204;8.132;2023-02-13T20:38:37;100130.22;;;3.18;83.39
59106;BME280;44891;50.204;8.132;2023-02-13T20:42:39;100128.34;;;3.11;83.63
59106;BME280;44891;50.204;8.132;2023-02-13T20:46:41;100131.69;;;2.84;87.60
59106;BME280;44891;50.204;8.132;2023-02-13T20:50:44;100137.78;;;3.02;85.85
59106;BME280;44891;50.204;8.132;2023-02-13T20:54:47;100127.34;;;2.75;87.70
59106;BME280;44891;50.204;8.132;2023-02-13T20:58:49;100121.28;;;2.93;85.36
59106;BME280;44891;50.204;8.132;2023-02-13T21:02:51;100121.22;;;3.13;84.52
59106;BME280;44891;50.204;8.132;2023-02-13T21:06:55;100118.19;;;2.80;86.52
59106;BME280;44891;50.204;8.132;2023-02-13T21:10:59;100113.59;;;3.02;84.88
59106;BME280;44891;50.204;8.132;2023-02-13T21:15:01;100113.97;;;2.79;86.52
59106;BME280;44891;50.204;8.132;2023-02-13T21:19:04;100123.78;;;2.76;88.20
59106;BME280;44891;50.204;8.132;2023-02-13T21:23:08;100112.97;;;2.90;87.16
59106;BME280;44891;50.204;8.132;2023-02-13T21:27:10;100114.47;;;2.92;87.57
59106;BME280;44891;50.204;8.132;2023-02-13T21:31:13;100115.75;;;2.79;86.88
59106;BME280;44891;50.204;8.132;2023-02-13T21:35:16;100109.19;;;2.75;85.88
59106;BME280;44891;50.204;8.132;2023-02-13T21:39:19;100103.34;;;2.72;86.30
59106;BME280;44891;50.204;8.132;2023-02-13T21:43:21;100109.75;;;2.68;85.66
59106;BME280;44891;50.204;8.132;2023-02-13T21:47:23;100107.75;;;2.43;87.78